Time;durP1;ratioP1;P1;durP2;ratioP2;P2;SDS_P1;SDS_P2;PMS_P1;PMS_P2;Temp;Humidity;BMP_temperature;BMP_pressure;BME280_temperature;BME280_humidity;BME280_pressure;Samples;Min_cycle;Max_cycle;Signal;HPM_P1;HPM_P2
2023/09/25 00:01:48;;;;;;;17.20;6.00;;;;;;;18.26;39.03;100143.06;78334;1299;3025874;-69
2023/09/25 00:04:14;;;;;;;14.30;5.20;;;;;;;18.19;39.27;100144.73;79488;1297;3013286;-69
2023/09/25 00:06:41;;;;;;;16.70;5.20;;;;;;;18.12;39.16;100145.54;79518;1294;3011372;-71
2023/09/25 00:09:11;;;;;;;19.00;5.50;;;;;;;18.06;39.39;100147.25;78218;1294;3069873;-67
2023/09/25 00:11:37;;;;;;;16.10;5.00;;;;;;;18.00;39.83;100144.36;79477;1299;3011548;-70
2023/09/25 00:14:03;;;;;;;22.00;5.90;;;;;;;17.93;40.19;100146.99;79516;1294;3013207;-68
2023/09/25 00:16:31;;;;;;;16.00;5.60;;;;;;;17.86;40.51;100148.45;78193;1294;3053262;-65
2023/09/25 00:18:58;;;;;;;20.70;6.40;;;;;;;17.82;40.33;100151.59;79497;1298;3013638;-68
2023/09/25 00:21:24;;;;;;;13.60;5.30;;;;;;;17.80;40.37;100153.91;79463;1300;3011922;-66
2023/09/25 00:23:52;;;;;;;16.60;6.00;;;;;;;17.78;40.38;100152.30;78215;1294;3027537;-70
2023/09/25 00:26:18;;;;;;;15.20;5.80;;;;;;;17.78;40.09;100152.96;79608;1294;3020463;-67
2023/09/25 00:28:51;;;;;;;12.70;5.40;;;;;;;17.80;40.16;100148.08;79041;1294;3011636;-67
2023/09/25 00:31:21;;;;;;;11.80;5.50;;;;;;;17.79;40.10;100148.86;79544;1299;3011631;-67
2023/09/25 00:33:50;;;;;;;13.10;6.10;;;;;;;17.73;40.53;100150.02;78145;1297;3026798;-68
2023/09/25 00:36:18;;;;;;;19.20;5.40;;;;;;;17.69;40.44;100152.63;79546;1297;3013525;-69
2023/09/25 00:38:44;;;;;;;18.70;5.60;;;;;;;17.64;40.35;100151.98;79482;1300;3011638;-71
2023/09/25 00:41:12;;;;;;;13.10;5.50;;;;;;;17.59;40.51;100152.52;78166;1297;3068026;-71
2023/09/25 00:43:38;;;;;;;13.50;5.30;;;;;;;17.53;40.71;100153.85;79472;1297;3013236;-67
2023/09/25 00:46:05;;;;;;;16.00;5.90;;;;;;;17.53;40.71;100156.59;79375;1296;3012032;-67
2023/09/25 00:48:33;;;;;;;18.00;6.10;;;;;;;17.53;40.62;100155.64;78276;1294;3026822;-69
2023/09/25 00:50:59;;;;;;;17.00;5.10;;;;;;;17.52;40.56;100153.80;79498;1297;3013093;-67
2023/09/25 00:53:26;;;;;;;13.40;5.60;;;;;;;17.53;40.28;100152.46;79512;1297;3012791;-69
2023/09/25 00:55:54;;;;;;;19.20;6.30;;;;;;;17.53;40.15;100150.36;78222;1296;3025964;-70
2023/09/25 00:58:21;;;;;;;23.20;6.20;;;;;;;17.51;40.18;100144.80;79689;1294;3018566;-70
2023/09/25 01:00:47;;;;;;;15.60;5.90;;;;;;;17.52;40.22;100144.42;79373;1294;3011558;-66
2023/09/25 01:03:15;;;;;;;10.40;4.70;;;;;;;17.53;39.91;100147.70;78134;1298;3027455;-69
2023/09/25 01:05:42;;;;;;;13.30;5.20;;;;;;;17.54;40.29;100147.06;79457;1299;3013229;-66
2023/09/25 01:08:10;;;;;;;22.10;5.20;;;;;;;17.53;40.08;100148.40;79630;1299;3011542;-71
2023/09/25 01:10:39;;;;;;;12.00;5.70;;;;;;;17.51;40.31;100152.23;78244;1297;3068908;-68
2023/09/25 01:13:06;;;;;;;14.70;5.60;;;;;;;17.50;40.63;100154.31;79415;1300;3013100;-65
2023/09/25 01:15:33;;;;;;;14.20;5.10;;;;;;;17.48;40.36;100156.56;79633;1296;3013507;-65
2023/09/25 01:18:03;;;;;;;14.40;6.40;;;;;;;17.48;40.26;100161.17;78245;1297;3049010;-68
2023/09/25 01:20:29;;;;;;;11.60;5.70;;;;;;;17.46;40.21;100160.11;79466;1297;3013178;-66
2023/09/25 01:22:56;;;;;;;19.00;5.80;;;;;;;17.37;40.47;100166.63;79485;1294;3011634;-65
2023/09/25 01:25:25;;;;;;;14.00;5.80;;;;;;;17.32;40.65;100163.84;78272;1300;3052000;-68
2023/09/25 01:27:51;;;;;;;14.90;5.30;;;;;;;17.32;40.65;100167.59;79418;1300;3013422;-67
2023/09/25 01:30:18;;;;;;;17.90;5.20;;;;;;;17.32;40.91;100168.67;79421;1297;3011698;-65
2023/09/25 01:32:49;;;;;;;11.00;5.00;;;;;;;17.32;40.89;100165.61;78086;1296;3048395;-65
2023/09/25 01:35:18;;;;;;;13.70;5.40;;;;;;;17.32;41.02;100166.70;79387;1295;3012086;-66
2023/09/25 01:37:46;;;;;;;17.00;5.50;;;;;;;17.33;41.05;100165.20;78322;1297;3027241;-67
2023/09/25 01:40:15;;;;;;;15.70;5.60;;;;;;;17.33;40.65;100166.79;79513;1296;3011708;-69
2023/09/25 01:42:45;;;;;;;11.10;5.70;;;;;;;17.30;41.06;100169.65;78829;1296;3011909;-66
2023/09/25 01:45:14;;;;;;;13.60;5.50;;;;;;;17.22;41.35;100167.05;79502;1295;3013367;-64
2023/09/25 01:47:41;;;;;;;17.70;5.80;;;;;;;17.17;41.39;100169.41;79348;1300;3011549;-63
2023/09/25 01:50:10;;;;;;;16.30;5.80;;;;;;;17.10;41.76;100174.02;78012;1299;3049761;-67
2023/09/25 01:52:37;;;;;;;14.00;5.80;;;;;;;17.03;42.01;100170.98;79638;1295;3013400;-67
2023/09/25 01:55:04;;;;;;;14.50;6.10;;;;;;;17.00;42.39;100173.73;79216;1299;3013078;-67
2023/09/25 01:57:32;;;;;;;18.80;6.20;;;;;;;16.93;42.55;100166.80;78328;1299;3051677;-69
2023/09/25 01:59:59;;;;;;;15.90;6.20;;;;;;;16.90;42.60;100171.12;79407;1297;3013267;-67
2023/09/25 02:02:26;;;;;;;12.80;5.90;;;;;;;16.84;42.64;100173.89;79355;1296;3011503;-67
2023/09/25 02:04:55;;;;;;;13.20;5.60;;;;;;;16.78;42.91;100174.80;78474;1296;3049656;-68
2023/09/25 02:07:22;;;;;;;20.40;6.30;;;;;;;16.71;43.14;100174.64;79270;1294;3013355;-63
2023/09/25 02:09:48;;;;;;;17.60;6.50;;;;;;;16.62;43.35;100179.05;79375;1299;3011492;-66
2023/09/25 02:12:16;;;;;;;15.00;5.60;;;;;;;16.57;43.42;100180.25;78123;1297;3025853;-67
2023/09/25 02:14:42;;;;;;;13.60;5.90;;;;;;;16.48;43.84;100182.52;79435;1300;3012934;-68
2023/09/25 02:17:09;;;;;;;17.40;6.60;;;;;;;16.44;43.77;100180.86;79373;1294;3013366;-63
2023/09/25 02:19:37;;;;;;;12.40;5.70;;;;;;;16.36;44.26;100182.21;78162;1300;3026477;-68
2023/09/25 02:22:06;;;;;;;12.20;6.50;;;;;;;16.28;44.33;100190.02;79443;1294;3013959;-65
2023/09/25 02:24:35;;;;;;;13.40;5.50;;;;;;;16.23;44.58;100189.84;78952;1298;3011605;-66
2023/09/25 02:27:02;;;;;;;18.10;5.80;;;;;;;16.17;44.79;100197.39;79525;1299;3013694;-65
2023/09/25 02:29:29;;;;;;;15.90;6.20;;;;;;;16.09;45.00;100201.44;79350;1295;3011566;-66
2023/09/25 02:31:56;;;;;;;13.60;5.60;;;;;;;16.06;45.12;100203.09;78289;1295;3026989;-66
2023/09/25 02:34:23;;;;;;;18.60;6.10;;;;;;;16.02;45.41;100201.77;79519;1295;3013232;-64
2023/09/25 02:36:49;;;;;;;16.20;6.30;;;;;;;15.98;45.83;100199.73;79264;1296;3012858;-63
2023/09/25 02:39:18;;;;;;;16.30;6.30;;;;;;;15.93;45.80;100199.92;78088;1300;3026664;-66
2023/09/25 02:41:45;;;;;;;12.10;6.70;;;;;;;15.86;46.32;100202.36;79452;1299;3013550;-64
2023/09/25 02:44:11;;;;;;;14.40;6.30;;;;;;;15.82;46.48;100202.30;79537;1294;3013896;-64
2023/09/25 02:46:39;;;;;;;13.90;6.60;;;;;;;15.78;46.97;100203.80;78099;1294;3050261;-65
2023/09/25 02:49:05;;;;;;;14.80;6.60;;;;;;;15.76;46.97;100203.92;79678;1295;3013171;-64
2023/09/25 02:51:32;;;;;;;20.10;6.70;;;;;;;15.77;46.99;100207.23;79465;1299;3011820;-68
2023/09/25 02:54:00;;;;;;;13.20;5.90;;;;;;;15.82;46.37;100207.76;78287;1299;3026667;-63
2023/09/25 02:56:26;;;;;;;13.70;6.10;;;;;;;15.88;46.21;100208.62;79535;1299;3012596;-65
2023/09/25 02:58:53;;;;;;;15.90;6.10;;;;;;;15.92;45.93;100210.23;79492;1300;3013389;-65
2023/09/25 03:01:21;;;;;;;15.50;6.10;;;;;;;15.97;45.90;100209.23;78264;1299;3026895;-66
2023/09/25 03:03:47;;;;;;;14.00;5.50;;;;;;;15.97;45.82;100210.59;79338;1294;3020609;-65
2023/09/25 03:06:15;;;;;;;18.60;6.40;;;;;;;16.02;45.51;100215.77;79312;1294;3012201;-64
2023/09/25 03:08:43;;;;;;;21.10;7.20;;;;;;;16.05;45.60;100217.45;78020;1300;3050618;-64
2023/09/25 03:11:09;;;;;;;14.20;5.90;;;;;;;16.06;45.44;100214.34;79687;1297;3013526;-64
2023/09/25 03:13:36;;;;;;;13.60;6.30;;;;;;;16.08;45.26;100216.30;79237;1296;3013984;-65
2023/09/25 03:16:12;;;;;;;14.50;6.10;;;;;;;16.09;45.15;100215.59;78084;1295;3028703;-63
2023/09/25 03:18:41;;;;;;;17.90;6.10;;;;;;;16.06;45.65;100219.30;78255;1294;3056976;-65
2023/09/25 03:21:11;;;;;;;11.90;5.80;;;;;;;16.06;45.27;100217.55;79514;1294;3014893;-64
2023/09/25 03:23:40;;;;;;;14.30;5.10;;;;;;;16.05;45.47;100220.84;78009;1299;3050072;-67
2023/09/25 03:26:16;;;;;;;18.30;6.10;;;;;;;16.01;45.80;100222.55;79506;1300;3012802;-67
2023/09/25 03:28:44;;;;;;;12.00;5.90;;;;;;;15.95;46.09;100222.25;78329;1299;3068828;-65
2023/09/25 03:31:11;;;;;;;15.40;5.60;;;;;;;15.94;45.94;100219.51;79388;1297;3013440;-64
2023/09/25 03:33:38;;;;;;;11.70;6.40;;;;;;;15.94;45.97;100219.43;79366;1295;3011848;-65
2023/09/25 03:36:07;;;;;;;13.60;6.60;;;;;;;15.98;45.79;100220.95;78208;1296;3026997;-66
2023/09/25 03:38:35;;;;;;;15.80;5.60;;;;;;;16.01;45.95;100221.44;79510;1297;3013446;-67
2023/09/25 03:41:01;;;;;;;17.10;6.50;;;;;;;16.05;45.84;100223.82;79513;1296;3011613;-67
2023/09/25 03:43:29;;;;;;;15.70;5.60;;;;;;;16.06;45.91;100226.60;78283;1297;3068406;-70
2023/09/25 03:45:56;;;;;;;16.00;5.70;;;;;;;16.08;45.81;100230.30;79635;1299;3013519;-68
2023/09/25 03:48:22;;;;;;;16.30;5.90;;;;;;;16.11;45.76;100232.77;79650;1297;3012830;-66
2023/09/25 03:50:50;;;;;;;15.40;6.70;;;;;;;16.14;45.83;100231.51;78485;1302;3026897;-65
2023/09/25 03:53:17;;;;;;;18.60;6.10;;;;;;;16.15;45.82;100232.13;79677;1300;3013124;-66
2023/09/25 03:55:43;;;;;;;19.70;6.00;;;;;;;16.18;45.68;100234.24;79442;1295;3011585;-66
2023/09/25 03:58:11;;;;;;;12.00;5.80;;;;;;;16.20;45.91;100231.08;78072;1301;3026689;-68
2023/09/25 04:00:38;;;;;;;10.30;5.30;;;;;;;16.20;45.71;100233.55;79388;1294;3019231;-65
2023/09/25 04:03:04;;;;;;;16.60;5.50;;;;;;;16.21;45.80;100236.48;79630;1298;3012201;-69
2023/09/25 04:05:33;;;;;;;23.50;5.30;;;;;;;16.23;45.62;100237.73;78473;1300;3026166;-66
2023/09/25 04:08:00;;;;;;;13.50;5.60;;;;;;;16.24;45.84;100241.58;79719;1300;3013143;-60
2023/09/25 04:10:27;;;;;;;13.80;5.70;;;;;;;16.27;45.75;100242.23;79459;1294;3012013;-61
2023/09/25 04:12:55;;;;;;;15.50;5.60;;;;;;;16.28;45.86;100246.94;78229;1298;3068405;-69
2023/09/25 04:15:25;;;;;;;15.50;6.10;;;;;;;16.29;45.85;100242.98;79627;1296;3013387;-63
2023/09/25 04:17:54;;;;;;;20.70;6.40;;;;;;;16.32;45.83;100244.89;79096;1297;3012870;-64
2023/09/25 04:20:24;;;;;;;14.90;5.90;;;;;;;16.34;45.73;100244.55;79504;1300;3015235;-64
2023/09/25 04:22:52;;;;;;;17.10;5.70;;;;;;;16.37;45.70;100244.51;78197;1297;3049020;-64
2023/09/25 04:25:19;;;;;;;16.40;6.00;;;;;;;16.40;45.61;100247.59;79463;1298;3011475;-63
2023/09/25 04:27:50;;;;;;;19.00;6.00;;;;;;;16.45;45.59;100246.55;79638;1297;3013022;-64
2023/09/25 04:30:19;;;;;;;14.30;6.20;;;;;;;16.48;45.77;100242.30;78274;1294;3051469;-65
2023/09/25 04:32:46;;;;;;;13.40;5.90;;;;;;;16.49;45.44;100244.86;79542;1297;3013988;-63
2023/09/25 04:35:15;;;;;;;13.30;5.50;;;;;;;16.51;45.79;100245.05;79464;1294;3013136;-63
2023/09/25 04:37:43;;;;;;;14.20;5.60;;;;;;;16.55;45.74;100242.87;78489;1294;3049536;-63
2023/09/25 04:40:22;;;;;;;16.20;5.50;;;;;;;16.59;45.66;100245.41;79325;1300;3019655;-62
2023/09/25 04:42:50;;;;;;;17.10;6.10;;;;;;;16.60;46.07;100244.02;78280;1299;3071168;-63
2023/09/25 04:45:18;;;;;;;15.70;5.90;;;;;;;16.66;45.78;100249.83;79362;1294;3013561;-64
2023/09/25 04:47:46;;;;;;;16.50;6.00;;;;;;;16.68;45.74;100253.96;79300;1294;3011680;-64
2023/09/25 04:50:14;;;;;;;12.30;6.10;;;;;;;16.68;46.21;100255.69;78158;1295;3053562;-63
2023/09/25 04:52:41;;;;;;;22.50;6.30;;;;;;;16.73;45.87;100257.10;79634;1298;3020545;-64
2023/09/25 04:55:10;;;;;;;14.90;6.00;;;;;;;16.79;45.64;100257.52;79621;1296;3011364;-62
2023/09/25 04:57:44;;;;;;;12.70;5.60;;;;;;;16.85;45.71;100262.75;78567;1297;3069109;-61
2023/09/25 05:00:16;;;;;;;18.60;6.00;;;;;;;16.89;45.78;100267.08;79269;1297;3011399;-64
2023/09/25 05:02:45;;;;;;;15.80;6.30;;;;;;;16.92;45.62;100263.84;78204;1294;3056826;-62
2023/09/25 05:05:13;;;;;;;19.40;5.80;;;;;;;16.96;45.52;100271.84;79525;1300;3013620;-63
2023/09/25 05:07:41;;;;;;;20.70;6.30;;;;;;;16.99;45.60;100269.56;79404;1294;3013698;-65
2023/09/25 05:10:10;;;;;;;18.20;5.90;;;;;;;17.04;45.81;100271.85;78200;1299;3051995;-63
2023/09/25 05:13:04;;;;;;;12.00;5.90;;;;;;;17.08;45.44;100270.25;78250;1294;3052448;-64
2023/09/25 05:15:31;;;;;;;12.40;5.70;;;;;;;17.13;45.24;100271.71;79345;1296;3019241;-64
2023/09/25 05:17:57;;;;;;;17.00;5.30;;;;;;;17.16;45.36;100269.67;79300;1294;3011516;-63
2023/09/25 05:20:26;;;;;;;15.60;5.50;;;;;;;17.24;45.23;100273.86;78227;1296;3027687;-64
2023/09/25 05:22:55;;;;;;;13.60;5.80;;;;;;;17.31;44.93;100267.52;79472;1294;3013002;-63
2023/09/25 05:25:26;;;;;;;11.60;5.50;;;;;;;17.37;45.04;100270.09;78755;1294;3011913;-64
2023/09/25 05:27:55;;;;;;;14.70;6.10;;;;;;;17.43;44.81;100270.61;79366;1299;3013564;-64
2023/09/25 05:30:23;;;;;;;13.80;6.00;;;;;;;17.48;44.87;100265.46;78135;1299;3054333;-63
2023/09/25 05:32:51;;;;;;;17.80;5.90;;;;;;;17.54;45.02;100268.91;79611;1296;3013157;-62
2023/09/25 05:35:18;;;;;;;10.30;5.90;;;;;;;17.62;44.58;100273.12;79394;1298;3011579;-63
2023/09/25 05:37:47;;;;;;;15.20;6.10;;;;;;;17.69;44.43;100277.55;78297;1298;3049342;-64
2023/09/25 05:40:15;;;;;;;14.10;5.60;;;;;;;17.77;44.32;100277.10;79686;1295;3013735;-66
2023/09/25 05:42:43;;;;;;;20.90;5.40;;;;;;;17.84;44.41;100278.48;79520;1297;3011963;-65
2023/09/25 05:45:12;;;;;;;15.30;5.20;;;;;;;17.92;44.34;100276.81;78529;1300;3051225;-62
2023/09/25 05:47:38;;;;;;;11.60;5.50;;;;;;;17.99;44.44;100281.10;79698;1297;3014507;-65
2023/09/25 05:50:08;;;;;;;22.10;6.20;;;;;;;18.05;44.51;100276.67;79721;1294;3011502;-64
2023/09/25 05:52:37;;;;;;;12.20;4.90;;;;;;;18.16;44.14;100279.42;78307;1297;3048704;-61
2023/09/25 05:55:07;;;;;;;20.60;5.80;;;;;;;18.22;43.87;100281.52;79505;1295;3012913;-64
2023/09/25 05:57:35;;;;;;;18.00;5.90;;;;;;;18.29;43.83;100285.77;78178;1300;3052570;-63
2023/09/25 06:00:11;;;;;;;19.30;5.70;;;;;;;18.38;43.67;100284.74;79656;1297;3019086;-61
2023/09/25 06:02:39;;;;;;;20.00;5.30;;;;;;;18.48;43.78;100288.57;77996;1295;3051970;-64
2023/09/25 06:05:06;;;;;;;10.30;5.40;;;;;;;18.57;43.60;100287.96;79484;1298;3012572;-61
2023/09/25 06:07:33;;;;;;;15.20;5.70;;;;;;;18.67;43.17;100288.95;79434;1296;3012095;-60
2023/09/25 06:10:04;;;;;;;10.70;5.60;;;;;;;18.75;43.27;100290.23;78349;1300;3049361;-61
2023/09/25 06:12:57;;;;;;;17.00;5.40;;;;;;;18.83;43.41;100290.83;78073;1300;3053517;-64
2023/09/25 06:15:25;;;;;;;18.50;5.70;;;;;;;18.91;43.36;100292.16;79389;1300;3013831;-61
2023/09/25 06:17:52;;;;;;;11.00;5.30;;;;;;;18.97;43.48;100293.10;79245;1297;3013231;-60
2023/09/25 06:20:24;;;;;;;21.80;5.70;;;;;;;19.06;43.12;100288.08;78378;1297;3056793;-64
2023/09/25 06:22:51;;;;;;;24.40;5.50;;;;;;;19.17;43.53;100292.39;79303;1299;3011479;-61
2023/09/25 06:25:19;;;;;;;15.60;5.20;;;;;;;19.24;42.84;100294.23;78119;1297;3025344;-62
2023/09/25 06:27:46;;;;;;;13.10;5.50;;;;;;;19.30;42.50;100296.05;79273;1298;3021268;-64
2023/09/25 06:30:14;;;;;;;17.00;5.50;;;;;;;19.36;42.41;100294.84;79503;1294;3011861;-61
2023/09/25 06:32:41;;;;;;;13.80;5.30;;;;;;;19.43;42.30;100296.50;78138;1300;3068727;-62
2023/09/25 06:35:09;;;;;;;14.30;5.40;;;;;;;19.52;42.34;100295.40;79437;1300;3013221;-63
2023/09/25 06:37:35;;;;;;;15.20;4.90;;;;;;;19.61;42.28;100299.11;79384;1299;3011596;-63
2023/09/25 06:40:09;;;;;;;13.90;5.40;;;;;;;19.70;41.69;100292.67;78093;1294;3028826;-61
2023/09/25 06:42:37;;;;;;;15.90;5.10;;;;;;;19.76;42.06;100297.64;79324;1295;3013006;-63
2023/09/25 06:45:05;;;;;;;18.10;6.00;;;;;;;19.83;42.29;100300.11;78221;1299;3053318;-63
2023/09/25 06:47:33;;;;;;;17.50;5.90;;;;;;;19.94;42.33;100301.46;79364;1300;3011557;-63
2023/09/25 06:50:03;;;;;;;15.80;5.10;;;;;;;20.07;42.10;100303.18;78928;1295;3013452;-62
2023/09/25 06:52:30;;;;;;;15.10;5.50;;;;;;;20.17;42.08;100304.25;79616;1295;3012826;-64
2023/09/25 06:54:56;;;;;;;14.20;5.00;;;;;;;20.24;42.13;100304.33;79262;1299;3011619;-62
2023/09/25 06:57:25;;;;;;;14.20;5.00;;;;;;;20.31;41.94;100306.98;78108;1298;3053949;-64
2023/09/25 06:59:51;;;;;;;15.30;4.80;;;;;;;20.41;41.59;100308.40;79227;1299;3016049;-64
2023/09/25 07:06:27;;;;;;;17.90;4.50;;;;;;;20.67;41.12;100312.70;78185;1300;3067837;-64
2023/09/25 07:08:53;;;;;;;19.00;5.50;;;;;;;20.77;41.21;100319.63;79358;1296;3013151;-64
2023/09/25 07:11:20;;;;;;;26.60;5.30;;;;;;;20.90;41.16;100319.37;79635;1296;3012943;-63
2023/09/25 07:13:48;;;;;;;17.80;5.30;;;;;;;21.01;40.97;100320.16;78373;1294;3026675;-65
2023/09/25 07:16:15;;;;;;;11.70;4.90;;;;;;;21.12;41.01;100321.67;79628;1300;3013051;-65
2023/09/25 07:18:43;;;;;;;22.20;5.60;;;;;;;21.25;40.36;100316.52;79607;1300;3011466;-67
2023/09/25 07:21:12;;;;;;;11.80;4.70;;;;;;;21.39;40.34;100317.92;78324;1299;3069273;-63
2023/09/25 07:23:39;;;;;;;17.50;5.20;;;;;;;21.54;40.71;100318.35;79416;1298;3013794;-64
2023/09/25 07:26:09;;;;;;;16.70;5.30;;;;;;;21.69;40.16;100317.51;79565;1297;3011818;-64
2023/09/25 07:28:37;;;;;;;12.70;5.40;;;;;;;21.82;39.94;100320.02;78465;1296;3053713;-62
2023/09/25 07:31:05;;;;;;;19.60;5.50;;;;;;;21.91;40.04;100320.52;79494;1300;3018467;-63
2023/09/25 07:33:32;;;;;;;20.40;5.40;;;;;;;22.05;39.52;100320.70;79453;1300;3011637;-62
2023/09/25 07:36:00;;;;;;;9.20;4.80;;;;;;;22.17;39.62;100321.14;78208;1298;3069957;-64
2023/09/25 07:38:28;;;;;;;17.50;4.80;;;;;;;22.26;39.58;100323.85;79683;1294;3013950;-64
2023/09/25 07:40:54;;;;;;;12.10;5.20;;;;;;;22.38;39.30;100327.57;79426;1294;3013744;-63
2023/09/25 07:43:23;;;;;;;18.70;5.50;;;;;;;22.47;39.36;100327.61;78237;1297;3053212;-65
2023/09/25 07:45:51;;;;;;;13.50;5.60;;;;;;;22.56;39.24;100330.16;79432;1300;3013489;-64
2023/09/25 07:48:18;;;;;;;21.70;6.20;;;;;;;22.67;39.04;100330.79;79595;1300;3011765;-64
2023/09/25 07:50:45;;;;;;;15.10;6.40;;;;;;;22.77;39.01;100330.02;78343;1298;3068678;-64
2023/09/25 07:53:12;;;;;;;16.60;6.00;;;;;;;22.86;38.70;100330.59;79637;1297;3019279;-63
2023/09/25 07:55:40;;;;;;;26.60;6.40;;;;;;;22.89;37.89;100328.34;79252;1300;3011934;-65
2023/09/25 07:58:11;;;;;;;18.50;5.50;;;;;;;22.97;38.27;100324.86;78272;1295;3054479;-63
2023/09/25 08:00:39;;;;;;;23.00;6.60;;;;;;;23.06;38.36;100327.55;79312;1300;3011444;-65
2023/09/25 08:03:08;;;;;;;22.40;7.20;;;;;;;23.14;38.56;100328.36;78443;1298;3026082;-65
2023/09/25 08:05:36;;;;;;;17.80;6.40;;;;;;;23.24;38.60;100331.17;79657;1300;3013310;-65
2023/09/25 08:08:03;;;;;;;19.00;7.30;;;;;;;23.32;38.36;100328.72;79587;1296;3011618;-65
2023/09/25 08:10:31;;;;;;;22.50;7.50;;;;;;;23.32;38.09;100325.50;78210;1300;3058150;-66
2023/09/25 08:12:58;;;;;;;17.90;7.30;;;;;;;23.34;38.14;100329.73;79641;1301;3018301;-64
2023/09/25 08:15:25;;;;;;;22.60;7.40;;;;;;;23.48;38.00;100329.30;79505;1295;3011431;-63
2023/09/25 08:17:53;;;;;;;15.90;6.90;;;;;;;23.60;37.64;100329.65;78402;1311;3052465;-63
2023/09/25 08:20:22;;;;;;;36.60;9.00;;;;;;;23.73;37.58;100326.56;79379;1300;3013690;-64
2023/09/25 08:22:51;;;;;;;17.90;6.90;;;;;;;23.81;37.50;100322.86;78996;1297;3011768;-63
2023/09/25 08:25:18;;;;;;;15.70;6.70;;;;;;;23.90;37.13;100322.66;79647;1300;3015105;-65
2023/09/25 08:27:45;;;;;;;20.50;7.60;;;;;;;23.96;36.97;100322.23;79474;1300;3012348;-66
2023/09/25 08:30:16;;;;;;;19.70;6.70;;;;;;;24.03;36.92;100324.36;78293;1295;3026211;-65
2023/09/25 08:32:42;;;;;;;18.80;6.90;;;;;;;24.15;36.67;100323.33;79442;1297;3013206;-65
2023/09/25 08:35:11;;;;;;;27.00;7.60;;;;;;;24.24;36.65;100324.17;78923;1300;3012408;-65
2023/09/25 08:37:40;;;;;;;22.20;7.00;;;;;;;24.35;36.30;100319.31;79671;1298;3019198;-63
2023/09/25 08:40:10;;;;;;;20.10;7.50;;;;;;;24.46;36.03;100320.47;78792;1295;3011968;-65
2023/09/25 08:42:40;;;;;;;29.30;7.00;;;;;;;24.56;35.58;100318.68;79501;1298;3013827;-63
2023/09/25 08:45:09;;;;;;;11.70;5.90;;;;;;;24.61;35.17;100319.68;78839;1294;3011723;-62
2023/09/25 08:47:35;;;;;;;19.00;6.60;;;;;;;24.68;35.45;100318.17;79390;1297;3018726;-64
2023/09/25 08:50:02;;;;;;;19.00;6.60;;;;;;;24.79;35.16;100319.80;79219;1298;3011659;-62
2023/09/25 08:52:31;;;;;;;21.40;7.00;;;;;;;24.89;34.66;100312.91;78603;1295;3027586;-63
2023/09/25 08:54:59;;;;;;;20.30;6.00;;;;;;;24.95;34.57;100311.10;79493;1300;3013280;-64
2023/09/25 08:57:25;;;;;;;11.30;5.80;;;;;;;24.99;34.68;100315.55;79472;1295;3013905;-63
2023/09/25 08:59:53;;;;;;;26.60;6.50;;;;;;;25.11;34.33;100313.19;78498;1299;3057170;-65
2023/09/25 09:02:20;;;;;;;22.00;6.20;;;;;;;25.24;34.19;100313.30;79523;1297;3013630;-64
2023/09/25 09:04:47;;;;;;;20.50;6.30;;;;;;;25.27;33.54;100308.52;79158;1294;3011995;-62
2023/09/25 09:07:15;;;;;;;20.10;6.20;;;;;;;25.24;33.27;100310.81;78270;1298;3028367;-63
2023/09/25 09:09:43;;;;;;;17.80;5.80;;;;;;;25.32;33.19;100311.45;79305;1297;3013216;-62
2023/09/25 09:12:10;;;;;;;15.00;5.50;;;;;;;25.45;32.92;100306.46;79354;1295;3011598;-63
2023/09/25 09:14:40;;;;;;;17.20;5.60;;;;;;;25.56;32.58;100303.08;78370;1296;3056481;-64
2023/09/25 09:17:09;;;;;;;20.50;5.50;;;;;;;25.65;32.54;100303.30;79312;1300;3011785;-63
2023/09/25 09:19:44;;;;;;;20.20;6.00;;;;;;;25.76;32.28;100304.45;78067;1300;3028715;-66
2023/09/25 09:22:10;;;;;;;18.70;5.20;;;;;;;25.91;32.44;100295.43;79318;1297;3011776;-63
2023/09/25 09:24:39;;;;;;;17.10;5.00;;;;;;;26.05;32.17;100294.77;78232;1300;3052351;-63
2023/09/25 09:27:09;;;;;;;19.20;5.00;;;;;;;26.18;31.48;100295.25;79558;1299;3014152;-62
2023/09/25 09:29:42;;;;;;;12.70;4.40;;;;;;;26.29;31.32;100296.19;78318;1295;3051253;-63
2023/09/25 09:32:09;;;;;;;12.90;4.40;;;;;;;26.39;30.79;100298.12;79334;1295;3012322;-63
2023/09/25 09:34:40;;;;;;;15.50;4.00;;;;;;;26.46;30.79;100297.27;78257;1297;3049023;-64
2023/09/25 09:37:10;;;;;;;12.80;3.70;;;;;;;26.60;30.47;100298.16;79429;1297;3012077;-64
2023/09/25 09:39:37;;;;;;;13.20;3.20;;;;;;;26.70;29.18;100294.21;78213;1295;3049130;-63
2023/09/25 09:42:05;;;;;;;11.70;3.80;;;;;;;26.76;29.16;100290.82;79607;1299;3013591;-65
2023/09/25 09:44:32;;;;;;;13.70;3.80;;;;;;;26.86;29.06;100292.19;79447;1300;3011555;-65
2023/09/25 09:47:02;;;;;;;9.20;3.80;;;;;;;27.01;29.17;100296.33;78397;1300;3052315;-65
2023/09/25 09:49:30;;;;;;;8.90;3.30;;;;;;;27.12;28.85;100293.27;79396;1296;3011500;-62
2023/09/25 09:52:00;;;;;;;11.40;3.30;;;;;;;27.17;28.44;100293.44;78175;1299;3026609;-63
2023/09/25 09:54:26;;;;;;;8.00;3.50;;;;;;;27.21;28.28;100294.05;79551;1300;3011822;-64
2023/09/25 09:56:55;;;;;;;7.90;2.70;;;;;;;27.23;28.54;100291.72;79607;1301;3012218;-68
2023/09/25 09:59:22;;;;;;;8.10;2.60;;;;;;;27.29;28.25;100292.73;78458;1302;3053201;-66
2023/09/25 10:01:49;;;;;;;8.30;2.40;;;;;;;27.29;28.19;100287.16;79523;1298;3012921;-63
2023/09/25 10:04:15;;;;;;;10.20;2.40;;;;;;;27.37;27.95;100286.97;79376;1300;3011597;-65
2023/09/25 10:06:55;;;;;;;6.80;2.40;;;;;;;27.45;27.75;100278.85;78041;1294;3025943;-66
2023/09/25 10:09:25;;;;;;;9.90;2.50;;;;;;;27.55;27.49;100282.59;78349;1296;3052880;-67
2023/09/25 10:11:54;;;;;;;7.50;2.60;;;;;;;27.52;26.85;100279.57;79533;1299;3013216;-66
2023/09/25 10:14:23;;;;;;;9.30;2.90;;;;;;;27.64;27.23;100280.65;78224;1300;3051387;-68
2023/09/25 10:16:54;;;;;;;8.70;3.00;;;;;;;27.75;27.43;100280.76;79764;1300;3011802;-66
2023/09/25 10:19:22;;;;;;;6.80;2.50;;;;;;;27.88;27.04;100274.90;78274;1300;3051174;-66
2023/09/25 10:22:19;;;;;;;11.10;3.10;;;;;;;27.95;27.19;100272.80;79645;1295;3011817;-66
2023/09/25 10:24:49;;;;;;;7.00;3.10;;;;;;;28.01;26.76;100269.39;78251;1299;3054754;-66
2023/09/25 10:27:16;;;;;;;5.70;2.40;;;;;;;28.03;27.13;100263.83;79590;1300;3011532;-66
2023/09/25 10:30:21;;;;;;;23.70;3.40;;;;;;;28.07;26.62;100266.34;78965;1299;3011607;-66
2023/09/25 10:32:50;;;;;;;9.20;3.10;;;;;;;28.08;26.64;100267.80;77959;1305;3052746;-66
2023/09/25 10:35:42;;;;;;;9.20;2.70;;;;;;;28.19;26.30;100267.02;79455;1294;3015498;-67
2023/09/25 10:38:21;;;;;;;10.90;3.10;;;;;;;28.25;26.14;100259.86;78086;1295;3056607;-66
2023/09/25 10:40:49;;;;;;;9.00;2.70;;;;;;;28.25;26.34;100261.03;78329;1299;3049539;-66
2023/09/25 10:43:20;;;;;;;9.40;2.50;;;;;;;28.23;26.61;100259.50;79304;1295;3013646;-63
2023/09/25 10:45:48;;;;;;;8.30;2.70;;;;;;;28.23;26.52;100263.30;78458;1300;3053003;-67
2023/09/25 10:48:15;;;;;;;6.10;2.60;;;;;;;28.35;26.18;100258.80;79451;1300;3018299;-64
2023/09/25 10:50:46;;;;;;;9.40;2.60;;;;;;;28.46;26.34;100254.15;79278;1299;3011667;-64
2023/09/25 10:53:14;;;;;;;16.90;3.60;;;;;;;28.50;26.00;100250.79;78215;1300;3056287;-63
2023/09/25 10:55:41;;;;;;;12.40;3.20;;;;;;;28.51;26.10;100243.44;79463;1295;3013113;-63
2023/09/25 10:58:09;;;;;;;8.30;4.10;;;;;;;28.59;26.10;100243.06;79246;1295;3011869;-65
2023/09/25 11:00:38;;;;;;;6.00;2.80;;;;;;;28.74;26.07;100240.79;78447;1300;3052748;-63
2023/09/25 11:03:05;;;;;;;10.20;4.40;;;;;;;28.72;26.24;100236.65;79455;1298;3013412;-67
2023/09/25 11:05:34;;;;;;;7.30;2.80;;;;;;;28.86;26.06;100236.98;79337;1295;3011802;-63
2023/09/25 11:08:05;;;;;;;11.60;4.20;;;;;;;28.90;25.90;100236.02;78055;1300;3056409;-64
2023/09/25 11:10:34;;;;;;;12.10;3.80;;;;;;;28.94;25.26;100236.05;79189;1298;3013184;-65
2023/09/25 11:13:02;;;;;;;11.40;3.80;;;;;;;28.93;25.16;100237.20;78028;1297;3052810;-64